Terminal Aerodrome Forecast
Issued by NWS Jackson, MS

Home | Current Version | Previous Version | Text Only | Print | Product List | Glossary On
Versions: 1 2 3 4 5 6 7 8 9 10 11 12
000
FTUS44 KJAN 032336
TAFGLH
TAF
KGLH 032336Z 0400/0424 VRB03KT P6SM SCT060 SCT120
     FM040900 00000KT 4SM BR HZ SKC
     FM041400 VRB04KT P6SM SCT060=

USA.gov is the U.S. government's official web portal to all federal, state and local government web resources and services.